Beckwith, Iowa
Current Conditions -  °F | °C
As of 10:55 PM on Monday 20 Oct 2014 (Local Time) from KFFL Reporting Station
Clear Clear  
Wind Chill: 50°   Ceiling: Unl
Heat Index: 50°   Visibility: NA
Dew Point: 41°   Wind: 6mph
Humidity: 71%   Direction: 310°NW
Pressure: 30.03"   Gusts: NA
Location:  40.9879°N, 91.8924°W
Report Text: KFFL 210355Z AUTO 31005KT CLR 10/05 A3003 RMK AO2
Loading
Personal Weather Stations






























Interactive Weather Map
Tropical Storm Tracking
New forecast layout! Learn more

10-Day Weather Forecast

Advertisements
Track Severe Weather on mobile